Latest Coastal Weather Observations for Maatsuyker Island

IDT60701

Issued at 4:32 am EDT Tuesday 22 October 2019 (issued every 10 minutes, with the page automatically refreshed every 10 minutes)

About coastal observations | Map of coastal stations | Coastal observations for TAS | Marine services | Other Formats
Station Details ID: 094041 Name: MAATSUYKER ISLAND LIGHTHOUSE Lat: -43.66 Lon: 146.27 Height: 146.5 m
Data from the previous 72 hours. | See also: Recent months at Maatsuyker Island
Date/Time
EDT
Wind Sea
Height
m
Swell Vis
km
Cloud Weather Temp
°C
Press
hPa
Rain since
9am
mm
Dir  Spd
kts
Gust
kts
Height
m
Period
s
Dir
22/04:30am NW 24 27 - - - - - - - 8.7 1023.1 0.6
22/04:00am NW 23 27 - - - - - - - 8.0 1023.1 0.6
22/03:30am NW 25 30 - - - - - - - 8.6 1023.0 0.6
22/03:00am NW 22 25 - - - - - - - 8.4 1023.3 0.6
22/02:30am WNW 25 29 - - - - - - - 8.0 1023.1 0.4
22/02:00am WNW 24 29 - - - - - - - 8.5 1023.5 0.4
22/01:30am WNW 22 29 - - - - - - - 8.5 1023.7 0.4
22/01:00am WNW 24 27 - - - - - - - 8.2 1023.9 0.4
22/12:30am WNW 25 29 - - - - - - - 8.6 1023.8 0.4
22/12:00am WNW 29 33 - - - - - - - 8.4 1023.7 0.4
 
Date/Time
EDT
Wind Sea
Height
m
Swell Vis
km
Cloud Weather Temp
°C
Press
hPa
Rain since
9am
mm
Dir  Spd
kts
Gust
kts
Height
m
Period
s
Dir
21/11:30pm WNW 30 33 - - - - - - - 8.5 1023.3 0.4
21/11:00pm WNW 28 31 - - - - - - - 8.8 1023.5 0.4
21/10:30pm NW 29 33 - - - - - - - 9.0 1023.5 0.4
21/10:00pm NW 31 35 - - - - - - - 8.9 1023.2 0.2
21/09:30pm NW 31 37 - - - - - - - 8.7 1023.2 0.2
21/09:00pm NW 32 37 - - - - - - - 9.1 1023.1 0.0
21/08:30pm NW 32 37 - - - - - - - 9.0 1022.6 0.0
21/08:00pm WNW 32 35 - - - - - - - 9.3 1022.5 0.0
21/07:30pm NW 33 37 - - - - - - - 9.6 1022.2 0.0
21/07:00pm NW 32 37 - - - - - - - 9.0 1022.1 0.0
21/06:30pm NW 34 38 - - - - - - - 9.3 1021.8 0.0
21/06:00pm NW 33 37 - - - - - - - 9.6 1022.2 0.0
21/05:30pm NW 35 41 - - - - - - - 9.4 1021.8 0.0
21/05:00pm NW 37 41 - - - - - - - 9.0 1021.6 0.0
21/04:30pm NW 36 40 - - - - - - - 9.8 1021.9 0.0
21/04:00pm NW 36 41 - - - - - - - 9.5 1021.5 0.0
21/03:30pm NW 36 41 - - - - - - - 9.7 1021.5 0.0
21/03:00pm NW 33 40 - - - - - - - 9.8 1022.2 0.0
21/02:30pm NW 37 41 - - - - - - - 10.0 1021.8 0.0
21/02:00pm NW 36 40 - - - - - - - 10.0 1021.8 0.0
21/01:30pm NW 37 41 - - - - - - - 9.5 1021.8 0.0
21/01:00pm NW 33 38 - - - - - - - 9.7 1022.0 0.0
21/12:30pm NW 34 39 - - - - - - - 9.7 1022.1 0.0
21/12:00pm NW 33 39 - - - - - - - 9.8 1022.6 0.0
21/11:30am NW 35 39 - - - - - - - 8.9 1022.4 0.0
21/11:00am NW 35 40 - - - - - - - 9.3 1022.6 0.0
21/10:30am NW 34 40 - - - - - - - 8.9 1022.5 0.0
21/10:00am NW 34 39 - - - - - - - 9.1 1022.6 0.0
21/09:30am NW 34 39 - - - - - - - 9.0 1022.7 0.0
21/09:00am NW 35 39 3 4.5 12 SW 21 Mostly cloudy Distant precip. 9.2 1022.7 2.4
21/08:30am WNW 36 40 - - - - - - - 8.9 1022.4 2.4
21/08:00am NW 37 41 - - - - - - - 8.7 1022.0 2.4
21/07:30am NW 35 40 - - - - - - - 9.0 1021.6 2.4
21/07:00am NW 36 43 - - - - - - - 9.0 1021.2 2.4
21/06:30am NW 39 43 - - - - - - - 9.1 1020.6 2.4
21/06:00am NW 38 43 3 5.0 12 SW 10 Mostly cloudy Distant precip. 9.2 1020.6 2.4
21/05:30am NW 39 45 - - - - - - - 9.3 1019.9 2.4
21/05:00am NW 40 45 - - - - - - - 9.2 1019.9 2.4
21/04:30am NW 42 48 - - - - - - - 8.7 1019.4 2.4
21/04:00am NW 40 46 - - - - - - - 9.5 1019.4 2.4
21/03:30am NW 41 46 - - - - - - - 9.1 1019.4 2.4
21/03:00am NW 43 49 - - - - - - - 9.0 1019.4 2.4
21/02:30am NW 41 47 - - - - - - - 8.9 1019.3 2.4
21/02:00am NW 43 48 - - - - - - - 9.2 1019.1 2.4
21/01:30am NW 42 47 - - - - - - - 9.1 1019.1 2.2
21/01:00am NW 40 44 - - - - - - - 9.6 1019.0 2.2
21/12:30am NW 42 47 - - - - - - - 9.3 1019.0 2.2
21/12:00am NW 37 43 - - - - - - - 9.3 1019.3 2.2
 
Date/Time
EDT
Wind Sea
Height
m
Swell Vis
km
Cloud Weather Temp
°C
Press
hPa
Rain since
9am
mm
Dir  Spd
kts
Gust
kts
Height
m
Period
s
Dir
20/11:30pm NW 41 47 - - - - - - - 9.4 1018.9 2.2
20/11:19pm NW 37 47 - - - - - - - 9.2 1018.9 2.2
20/11:00pm NW 36 42 - - - - - - - 9.5 1019.3 2.2
20/10:30pm NW 35 41 - - - - - - - 9.3 1019.4 2.0
20/10:00pm NW 37 42 - - - - - - - 10.0 1019.2 2.0
20/09:30pm NW 34 38 - - - - - - - 9.8 1018.8 2.0
20/09:00pm NW 36 41 - - - - - - - 10.0 1018.8 2.0
20/08:30pm NW 37 45 - - - - - - - 9.8 1017.9 2.0
20/08:00pm NW 37 42 - - - - - - - 9.9 1017.8 2.0
20/07:30pm WNW 40 47 - - - - - - - 9.6 1017.2 2.0
20/07:00pm NW 41 46 - - - - - - - 9.4 1016.7 2.0
20/06:30pm NW 43 47 - - - - - - - 9.8 1015.9 2.0
20/06:00pm NW 41 46 - - - - - - - 10.1 1015.6 2.0
20/05:30pm NW 44 49 - - - - - - - 10.2 1015.0 2.0
20/05:00pm NW 43 48 - - - - - - - 10.2 1014.7 2.0
20/04:30pm NW 42 50 - - - - - - - 10.2 1014.2 2.0
20/04:00pm NW 42 48 - - - - - - - 10.2 1014.0 2.0
20/03:30pm NW 45 51 - - - - - - - 10.0 1013.3 2.0
20/03:00pm NW 46 55 - - - - - - - 9.9 1013.2 2.0
20/02:30pm NW 44 50 - - - - - - - 9.8 1013.2 2.0
20/02:00pm NW 43 50 - - - - - - - 9.9 1013.1 2.0
20/01:30pm WNW 45 52 - - - - - - - 9.8 1013.1 1.8
20/01:16pm NW 42 52 - - - - - - - 9.7 1012.6 1.8
20/01:00pm NW 44 49 - - - - - - - 9.8 1012.3 1.8
20/12:50pm NW 42 52 - - - - - - - 9.7 1012.2 1.8
20/12:30pm WNW 44 51 - - - - - - - 9.8 1012.5 1.8
20/12:00pm NW 42 51 - - - - - - - 10.0 1012.5 1.2
20/11:30am NW 39 47 - - - - - - - 9.8 1012.0 0.8
20/11:00am NW 43 47 - - - - - - - 9.8 1011.2 0.8
20/10:41am NW 43 53 - - - - - - - 9.8 1011.3 0.8
20/10:30am NW 44 52 - - - - - - - 9.7 1010.6 0.8
20/10:17am NW 45 55 - - - - - - - 9.7 1010.9 0.6
20/10:00am NW 45 50 - - - - - - - 9.5 1010.1 0.2
20/09:30am NW 46 52 - - - - - - - 9.5 1009.3 0.0
20/09:00am NW 48 55 5 5.0 12 SW 4 Cloudy Distant precip. 9.7 1009.5 4.6
20/08:30am NW 51 58 - - - - - - - 9.3 1008.3 4.6
20/08:15am NW 49 59 - - - - - - - 9.3 1007.9 4.4
20/08:00am NW 49 55 - - - - - - - 9.1 1007.4 4.4
20/07:30am NW 50 55 - - - - - - - 9.1 1007.0 3.8
20/07:00am NW 49 57 - - - - - - - 9.3 1006.8 3.4
20/06:30am NW 51 58 - - - - - - - 9.3 1006.2 3.0
20/06:00am NW 52 59 5 5.0 12 SW 3 Cloudy Showers 9.7 1005.9 2.6
20/05:30am NW 48 56 - - - - - - - 10.0 1005.9 2.6
20/05:05am NW 51 61 - - - - - - - 10.0 1005.9 2.6
20/05:00am NW 52 61 - - - - - - - 9.8 1005.5 2.6
20/04:34am NW 50 61 - - - - - - - 9.6 1005.1 2.6
20/04:30am NW 49 55 - - - - - - - 9.9 1005.7 2.6
20/04:15am NW 47 57 - - - - - - - 9.5 1005.2 2.6
20/04:00am NW 49 55 - - - - - - - 9.6 1005.3 2.6
20/03:30am NW 51 58 - - - - - - - 8.9 1005.5 2.6
20/03:00am NW 51 57 - - - - - - - 9.4 1005.1 2.6
20/02:30am NW 51 58 - - - - - - - 9.3 1005.1 2.6
20/02:14am NW 48 58 - - - - - - - 9.3 1004.3 2.6
20/02:00am NW 47 56 - - - - - - - 9.9 1005.4 2.6
20/01:30am NW 49 57 - - - - - - - 9.6 1005.1 2.6
20/01:00am NW 48 55 - - - - - - - 9.2 1005.0 2.6
20/12:30am NW 50 57 - - - - - - - 8.9 1004.9 2.6
20/12:12am NW 53 60 - - - - - - - 9.0 1004.2 2.6
20/12:00am NW 41 49 - - - - - - - 9.1 1005.3 2.6
 
Date/Time
EDT
Wind Sea
Height
m
Swell Vis
km
Cloud Weather Temp
°C
Press
hPa
Rain since
9am
mm
Dir  Spd
kts
Gust
kts
Height
m
Period
s
Dir
19/11:33pm NW 47 57 - - - - - - - 8.8 1005.2 2.6
19/11:30pm NW 48 57 - - - - - - - 8.8 1004.7 2.6
19/11:00pm NW 49 55 - - - - - - - 8.9 1005.0 2.6
19/10:30pm NW 47 53 - - - - - - - 8.9 1005.3 2.6
19/10:06pm NW 47 57 - - - - - - - 8.3 1004.7 2.6
19/10:00pm NW 48 56 - - - - - - - 8.0 1004.4 2.6
19/09:30pm NW 51 61 - - - - - - - 8.0 1004.3 2.4
19/09:29pm NW 50 61 - - - - - - - 8.8 1004.1 2.4
19/09:00pm NW 44 50 - - - - - - - 8.5 1004.0 2.4
19/08:34pm NW 46 57 - - - - - - - 8.1 1004.0 2.4
19/08:30pm NW 45 52 - - - - - - - 8.9 1003.5 2.4
19/08:01pm NW 48 58 - - - - - - - 8.7 1002.6 2.4
19/08:00pm NW 48 56 - - - - - - - 9.0 1003.0 2.4
19/07:46pm NW 43 54 - - - - - - - 8.8 1003.4 2.4
19/07:30pm WNW 44 51 - - - - - - - 8.6 1003.4 2.4
19/07:00pm NW 43 49 - - - - - - - 8.8 1003.0 2.4
19/06:30pm WNW 45 51 - - - - - - - 8.5 1002.6 2.4
19/06:14pm NW 49 53 - - - - - - - 8.4 1002.1 2.4
19/06:01pm WNW 38 51 - - - - - - - 8.4 1002.1 2.2
19/06:00pm WNW 37 46 - - - - - - - 8.4 1002.6 2.2
19/05:30pm NW 42 53 - - - - - - - 7.8 1002.3 1.8
19/05:18pm NW 43 53 - - - - - - - 8.4 1001.7 1.6
19/05:00pm NW 43 49 - - - - - - - 9.1 1001.4 1.6
19/04:37pm NW 45 55 - - - - - - - 8.2 1001.0 1.6
19/04:30pm NW 42 50 - - - - - - - 8.7 1001.0 1.6
19/04:04pm NW 39 49 - - - - - - - 7.9 1001.7 1.6
19/04:00pm NW 43 52 - - - - - - - 7.9 1001.4 1.6
19/03:30pm WNW 47 55 - - - - - - - 6.8 1000.7 1.4
19/03:00pm NW 43 53 - - - - - - - 9.5 1001.5 0.4
19/02:53pm NW 46 50 - - - - - - - 9.2 1000.5 0.4
19/02:37pm NW 35 45 - - - - - - - 8.6 1001.3 0.4
19/02:30pm NW 37 43 - - - - - - - 8.6 1001.7 0.4
19/02:15pm NW 37 41 - - - - - - - 7.5 1001.4 0.4
19/02:13pm NW 49 59 - - - - - - - 7.2 1001.1 0.4
19/02:09pm NW 55 59 - - - - - - - 7.5 999.7 0.4
19/02:07pm NW 43 56 - - - - - - - 9.0 1000.9 0.4
19/02:00pm NW 43 49 - - - - - - - 8.9 1001.0 0.4
19/01:49pm WNW 37 48 - - - - - - - 7.7 1001.8 0.4
19/01:30pm WNW 33 38 - - - - - - - 8.8 1001.9 0.4
19/01:23pm WNW 39 49 - - - - - - - 8.7 1001.9 0.4
19/01:00pm NW 44 50 - - - - - - - 10.2 1000.4 0.4
19/12:30pm WNW 47 54 - - - - - - - 9.5 1000.5 0.4
19/12:00pm NW 48 56 - - - - - - - 9.0 999.7 0.4
19/11:30am NW 49 56 - - - - - - - 8.9 999.2 0.4
19/11:22am NW 52 56 - - - - - - - 8.5 999.1 0.4
19/11:00am WNW 42 50 - - - - - - - 7.7 1000.0 0.4
19/10:47am NW 43 54 - - - - - - - 7.4 999.8 0.2
19/10:30am NW 41 47 - - - - - - - 8.2 999.7 0.2
19/10:03am NW 42 52 - - - - - - - 6.6 999.7 0.0
19/10:00am NW 44 52 - - - - - - - 5.9 999.4 0.0
19/09:31am NW 48 58 - - - - - - - 7.4 998.1 0.0
19/09:30am NW 48 55 - - - - - - - 7.4 998.7 0.0
19/09:20am NW 46 54 - - - - - - - 7.5 998.4 0.0
19/09:00am NW 39 44 5 4.5 12 SW 12 Mostly cloudy Distant precip. 6.4 999.2 10.0
19/08:43am NW 37 42 - - - - - - - 5.4 999.1 10.0
19/08:30am NW 48 61 - - - - - - - 7.1 997.2 9.8
19/08:29am NW 47 61 - - - - - - - 7.4 997.8 9.8
19/08:00am NW 40 48 - - - - - - - 6.0 998.6 9.6
19/07:58am NW 40 47 - - - - - - - 5.8 998.5 9.6
19/07:55am NW 52 63 - - - - - - - 5.0 997.4 9.4
19/07:54am NW 42 63 - - - - - - - 6.4 997.6 9.2
19/07:30am NW 49 56 - - - - - - - 8.1 997.6 9.2
19/07:16am NW 42 52 - - - - - - - 7.6 997.9 9.2
19/07:11am NW 40 46 - - - - - - - 7.2 998.3 9.2
19/07:02am NW 50 60 - - - - - - - 7.6 997.4 9.2
19/07:00am NW 49 54 - - - - - - - 7.5 997.7 9.2
19/06:30am NW 39 50 - - - - - - - 7.0 998.4 9.2
19/06:22am NW 40 50 - - - - - - - 6.9 997.8 9.2
19/06:13am NW 37 42 - - - - - - - 6.9 998.6 9.0
19/06:00am NW 47 51 5 4.5 11 SW 2 Mostly cloudy Distant precip. 6.5 998.0 9.0
19/05:53am NW 46 50 - - - - - - - 6.3 998.0 9.0
19/05:47am NW 57 62 - - - - - - - 5.4 997.7 9.0
19/05:39am NW 44 54 - - - - - - - 7.9 997.7 9.0
19/05:30am NW 47 54 - - - - - - - 8.0 996.8 9.0
19/05:00am NW 49 54 - - - - - - - 7.6 997.3 9.0
19/04:37am NW 44 55 - - - - - - - 7.5 997.1 9.0

Other formats

Comma delimited format used in spreadsheet applications
http://www.bom.gov.au/fwo/IDT60701/IDT60701.94962.axf

JavaScript Object Notation format (JSON) in row-major order
http://www.bom.gov.au/fwo/IDT60701/IDT60701.94962.json

Data quality

Most of these data are generated automatically and are frequently updated. Quality checks on data are not normally performed. It is possible for incorrect values to appear. Refer to information at About Latest Weather Observations and please check the disclaimer before using these data.